Time;durP1;ratioP1;P1;durP2;ratioP2;P2;SDS_P1;SDS_P2;PMS_P1;PMS_P2;Temp;Humidity;BMP_temperature;BMP_pressure;BME280_temperature;BME280_humidity;BME280_pressure;Samples;Min_cycle;Max_cycle;Signal;HPM_P1;HPM_P2
2022/03/01 00:02:00;;;;;;;12.50;11.20;;;1.00;99.90;;;;;;4978049;28;20527;-74
2022/03/01 00:04:27;;;;;;;13.30;10.93;;;0.80;99.90;;;;;;4983770;28;20441;-74
2022/03/01 00:06:54;;;;;;;11.53;10.27;;;0.80;99.90;;;;;;4968479;28;20458;-74
2022/03/01 00:09:21;;;;;;;12.33;10.67;;;0.70;99.90;;;;;;4966607;28;20452;-74
2022/03/01 00:11:48;;;;;;;12.00;10.70;;;0.60;99.90;;;;;;4967990;28;20457;-74
2022/03/01 00:14:14;;;;;;;11.97;10.57;;;0.60;99.90;;;;;;4975137;28;21044;-74
2022/03/01 00:16:41;;;;;;;12.93;10.47;;;0.50;99.90;;;;;;4980276;28;20485;-74
2022/03/01 00:19:09;;;;;;;13.07;11.57;;;0.50;99.90;;;;;;4986798;28;20468;-75
2022/03/01 00:21:36;;;;;;;17.77;11.80;;;0.60;99.90;;;;;;4958701;28;20825;-77
2022/03/01 00:24:03;;;;;;;14.53;11.33;;;0.50;99.90;;;;;;4985808;28;20440;-77
2022/03/01 00:26:30;;;;;;;14.57;11.40;;;0.50;99.90;;;;;;4973926;28;20489;-76
2022/03/01 00:28:58;;;;;;;19.13;13.63;;;0.40;99.90;;;;;;4967923;28;21020;-76
2022/03/01 00:31:24;;;;;;;16.30;13.07;;;0.30;99.90;;;;;;4976153;28;20433;-77
2022/03/01 00:33:51;;;;;;;18.23;13.93;;;0.20;99.90;;;;;;4985353;28;20887;-77
2022/03/01 00:36:19;;;;;;;15.77;14.03;;;0.20;99.90;;;;;;4979513;28;20481;-77
2022/03/01 00:38:46;;;;;;;16.20;13.50;;;0.10;99.90;;;;;;4990710;28;20523;-76
2022/03/01 00:41:13;;;;;;;17.70;14.30;;;0.00;99.90;;;;;;4969963;28;20452;-76
2022/03/01 00:43:40;;;;;;;17.20;13.73;;;0.00;99.90;;;;;;4984801;28;20934;-76
2022/03/01 00:46:06;;;;;;;21.33;14.97;;;-0.10;99.90;;;;;;4980918;28;20826;-76
2022/03/01 00:48:33;;;;;;;19.13;14.47;;;-0.10;99.90;;;;;;4968079;28;20472;-77
2022/03/01 00:51:00;;;;;;;16.23;14.50;;;-0.10;99.90;;;;;;4972718;28;20449;-77
2022/03/01 00:53:28;;;;;;;15.47;13.37;;;-0.20;99.90;;;;;;4966703;28;20452;-77
2022/03/01 00:55:55;;;;;;;18.03;14.37;;;-0.20;99.90;;;;;;4973572;28;20488;-76
2022/03/01 00:58:22;;;;;;;15.90;14.13;;;-0.20;99.90;;;;;;4985606;28;20467;-77
2022/03/01 01:00:49;;;;;;;17.07;13.50;;;-0.10;99.90;;;;;;4973046;28;20441;-75
2022/03/01 01:03:16;;;;;;;18.53;14.27;;;-0.20;99.90;;;;;;4986935;28;20817;-75
2022/03/01 01:05:42;;;;;;;16.60;13.40;;;-0.20;99.90;;;;;;4972764;28;20465;-75
2022/03/01 01:08:09;;;;;;;17.63;14.03;;;-0.20;99.90;;;;;;4985825;28;20472;-75
2022/03/01 01:10:37;;;;;;;15.60;13.20;;;-0.30;99.90;;;;;;4965698;28;20804;-75
2022/03/01 01:13:04;;;;;;;17.23;13.53;;;-0.30;99.90;;;;;;4986804;28;20432;-75
2022/03/01 01:15:31;;;;;;;16.57;13.20;;;-0.30;99.90;;;;;;4975605;28;21071;-75
2022/03/01 01:17:58;;;;;;;17.13;12.40;;;-0.40;99.90;;;;;;4981555;28;20457;-75
2022/03/01 01:20:25;;;;;;;16.07;12.53;;;-0.50;99.90;;;;;;4981489;28;21017;-75
2022/03/01 01:22:52;;;;;;;17.03;12.30;;;-0.60;99.90;;;;;;4980658;28;20464;-75
2022/03/01 01:25:22;;;;;;;17.27;12.37;;;-0.60;99.90;;;;;;4979950;28;20445;-75
2022/03/01 01:27:52;;;;;;;16.77;12.20;;;-0.60;99.90;;;;;;4977009;28;20530;-75
2022/03/01 01:30:22;;;;;;;15.40;12.30;;;-0.60;99.90;;;;;;4971873;28;20511;-75
2022/03/01 01:32:49;;;;;;;15.10;12.67;;;-0.60;99.90;;;;;;4996887;28;20433;-75
2022/03/01 01:35:18;;;;;;;14.67;13.00;;;-0.50;99.90;;;;;;4983416;28;20544;-74
2022/03/01 01:37:45;;;;;;;16.30;12.67;;;-0.60;99.90;;;;;;4984176;28;20457;-74
2022/03/01 01:40:16;;;;;;;16.20;12.50;;;-0.60;99.90;;;;;;4974141;28;20461;-74
2022/03/01 01:42:43;;;;;;;15.10;13.27;;;-0.60;99.90;;;;;;4986244;28;20434;-75
2022/03/01 01:45:12;;;;;;;14.60;12.30;;;-0.70;99.90;;;;;;4983003;28;20523;-76
2022/03/01 01:47:39;;;;;;;17.40;13.40;;;-0.80;99.90;;;;;;4986516;28;20475;-78
2022/03/01 01:50:08;;;;;;;14.50;13.00;;;-0.80;99.90;;;;;;4984001;28;20453;-78
2022/03/01 01:52:35;;;;;;;17.27;13.07;;;-0.80;99.90;;;;;;4989508;28;20938;-76
2022/03/01 01:55:03;;;;;;;15.20;12.43;;;-0.90;99.90;;;;;;4962843;28;20818;-77
2022/03/01 01:57:30;;;;;;;18.40;14.07;;;-0.90;99.90;;;;;;4990581;28;20488;-77
2022/03/01 01:59:57;;;;;;;19.87;13.47;;;-1.00;99.90;;;;;;4987661;28;20436;-77
2022/03/01 02:02:26;;;;;;;17.53;14.20;;;-1.00;99.90;;;;;;4981178;28;20502;-77
2022/03/01 02:04:53;;;;;;;16.33;12.87;;;-1.00;99.90;;;;;;4995034;28;20440;-77
2022/03/01 02:07:20;;;;;;;15.60;13.03;;;-1.00;99.90;;;;;;4980596;28;20483;-78
2022/03/01 02:09:47;;;;;;;14.37;12.83;;;-1.00;99.90;;;;;;4993235;28;20436;-77
2022/03/01 02:12:14;;;;;;;14.83;12.43;;;-1.00;99.90;;;;;;4996970;28;20832;-77
2022/03/01 02:14:41;;;;;;;20.13;13.50;;;-1.00;99.90;;;;;;4981372;28;20996;-78
2022/03/01 02:17:10;;;;;;;15.60;13.37;;;-1.10;99.90;;;;;;4997243;28;21031;-76
2022/03/01 02:19:39;;;;;;;15.87;13.07;;;-1.20;99.90;;;;;;4985748;28;20451;-77
2022/03/01 02:22:08;;;;;;;15.53;13.40;;;-1.20;99.90;;;;;;4998998;28;20572;-77
2022/03/01 02:24:35;;;;;;;15.50;12.80;;;-1.20;99.90;;;;;;4981472;28;20440;-76
2022/03/01 02:27:04;;;;;;;19.67;14.40;;;-1.20;99.90;;;;;;4979874;28;20494;-77
2022/03/01 02:29:33;;;;;;;16.20;13.20;;;-1.30;99.90;;;;;;4972724;28;20444;-75
2022/03/01 02:32:02;;;;;;;16.60;13.27;;;-1.30;99.90;;;;;;4985276;28;20888;-76
2022/03/01 02:34:29;;;;;;;16.67;13.53;;;-1.30;99.90;;;;;;4981243;28;20475;-77
2022/03/01 02:36:56;;;;;;;18.00;14.03;;;-1.30;99.90;;;;;;4970816;28;20893;-76
2022/03/01 02:39:24;;;;;;;14.60;12.70;;;-1.30;99.90;;;;;;4974690;28;20467;-77
2022/03/01 02:41:51;;;;;;;17.80;13.70;;;-1.40;99.90;;;;;;4980079;28;20439;-77
2022/03/01 02:44:18;;;;;;;17.37;12.37;;;-1.40;99.90;;;;;;4976190;28;20459;-80
2022/03/01 02:46:48;;;;;;;15.17;12.70;;;-1.40;99.90;;;;;;4971412;28;20845;-78
2022/03/01 02:49:14;;;;;;;16.10;13.37;;;-1.40;99.90;;;;;;4988013;28;20441;-76
2022/03/01 02:51:42;;;;;;;17.00;13.23;;;-1.40;99.90;;;;;;4968045;28;20444;-77
2022/03/01 02:54:09;;;;;;;15.03;13.37;;;-1.40;99.90;;;;;;4982537;28;20445;-76
2022/03/01 02:56:39;;;;;;;17.60;13.67;;;-1.40;99.90;;;;;;4971797;28;20476;-77
2022/03/01 02:59:06;;;;;;;14.57;12.30;;;-1.40;99.90;;;;;;4989017;28;20552;-77
2022/03/01 03:01:33;;;;;;;15.77;12.50;;;-1.40;99.90;;;;;;4974431;28;20516;-77
2022/03/01 03:04:00;;;;;;;17.63;13.50;;;-1.40;99.90;;;;;;4988371;28;20444;-76
2022/03/01 03:06:27;;;;;;;17.83;14.00;;;-1.40;99.90;;;;;;4985721;28;20432;-76
2022/03/01 03:08:54;;;;;;;19.63;14.60;;;-1.50;99.90;;;;;;4972552;28;20564;-77
2022/03/01 03:11:21;;;;;;;17.17;13.80;;;-1.50;99.90;;;;;;4988748;28;21314;-76
2022/03/01 03:13:49;;;;;;;14.93;13.20;;;-1.60;99.90;;;;;;4987533;28;20523;-75
2022/03/01 03:16:17;;;;;;;19.77;13.37;;;-1.70;99.90;;;;;;4986086;28;20473;-75
2022/03/01 03:18:44;;;;;;;17.67;13.87;;;-1.70;99.90;;;;;;4981504;28;20493;-75
2022/03/01 03:21:11;;;;;;;16.50;14.20;;;-1.80;99.90;;;;;;4969644;28;20821;-75
2022/03/01 03:23:39;;;;;;;17.47;13.67;;;-1.80;99.90;;;;;;4991809;28;20880;-75
2022/03/01 03:26:06;;;;;;;18.10;13.97;;;-1.70;99.90;;;;;;4990651;28;20512;-75
2022/03/01 03:28:33;;;;;;;16.00;13.20;;;-1.70;99.90;;;;;;4993481;28;20477;-75
2022/03/01 03:31:01;;;;;;;16.60;13.40;;;-1.70;99.90;;;;;;4980944;28;20449;-76
2022/03/01 03:33:28;;;;;;;16.00;12.60;;;-1.70;99.90;;;;;;4977794;28;20965;-75
2022/03/01 03:35:56;;;;;;;17.93;14.90;;;-1.80;99.90;;;;;;4987549;28;20441;-75
2022/03/01 03:38:24;;;;;;;16.37;14.07;;;-1.90;99.90;;;;;;4968164;28;20480;-75
2022/03/01 03:40:51;;;;;;;17.00;13.33;;;-1.90;99.90;;;;;;4981723;28;20441;-75
2022/03/01 03:43:18;;;;;;;17.37;13.50;;;-2.00;99.90;;;;;;4987153;28;20442;-75
2022/03/01 03:45:45;;;;;;;15.80;14.03;;;-2.10;99.90;;;;;;4991337;28;20863;-77
2022/03/01 03:48:13;;;;;;;16.47;13.50;;;-2.10;99.90;;;;;;4994914;28;20475;-77
2022/03/01 03:50:40;;;;;;;17.83;13.63;;;-2.10;99.90;;;;;;4996291;28;20942;-75
2022/03/01 03:53:07;;;;;;;18.80;14.87;;;-2.10;99.90;;;;;;5006770;28;20863;-75
2022/03/01 03:55:34;;;;;;;18.37;14.77;;;-2.20;99.90;;;;;;4985893;28;21015;-75
2022/03/01 03:58:01;;;;;;;18.57;13.60;;;-2.20;99.90;;;;;;4980963;28;20489;-75
2022/03/01 04:00:28;;;;;;;16.20;13.77;;;-2.30;99.90;;;;;;4984704;28;20934;-80
2022/03/01 04:02:55;;;;;;;16.70;13.60;;;-2.30;99.90;;;;;;5013392;28;20432;-76
2022/03/01 04:05:23;;;;;;;18.20;14.03;;;-2.30;99.90;;;;;;4990209;28;20432;-78
2022/03/01 04:07:50;;;;;;;19.70;14.20;;;-2.30;99.90;;;;;;5003844;23;20499;-76
2022/03/01 04:10:17;;;;;;;19.40;14.43;;;-2.30;99.90;;;;;;5011666;28;20971;-76
2022/03/01 04:12:45;;;;;;;19.73;14.57;;;-2.30;99.90;;;;;;5003347;28;20451;-76
2022/03/01 04:15:13;;;;;;;20.27;15.03;;;-2.30;99.90;;;;;;4993633;28;20478;-76
2022/03/01 04:17:42;;;;;;;17.07;14.30;;;-2.40;99.90;;;;;;4994165;28;21071;-76
2022/03/01 04:20:10;;;;;;;17.30;13.87;;;-2.40;99.90;;;;;;5002593;28;20445;-75
2022/03/01 04:22:38;;;;;;;17.37;14.83;;;-2.30;99.90;;;;;;4999895;28;20454;-75
2022/03/01 04:25:07;;;;;;;18.67;13.83;;;-2.30;99.90;;;;;;5016050;28;20489;-76
2022/03/01 04:27:34;;;;;;;16.67;13.30;;;-2.30;99.90;;;;;;5003393;28;20891;-75
2022/03/01 04:30:01;;;;;;;17.63;14.53;;;-2.30;99.90;;;;;;5003876;28;20442;-76
2022/03/01 04:32:28;;;;;;;17.57;14.27;;;-2.40;99.90;;;;;;4981365;28;20793;-75
2022/03/01 04:34:55;;;;;;;21.33;14.07;;;-2.30;99.90;;;;;;5000874;28;20444;-75
2022/03/01 04:37:22;;;;;;;17.93;13.30;;;-2.40;99.90;;;;;;5002553;28;20948;-76
2022/03/01 04:39:50;;;;;;;15.73;13.10;;;-2.30;99.90;;;;;;5003893;28;20447;-75
2022/03/01 04:42:17;;;;;;;18.93;12.83;;;-2.40;99.90;;;;;;4990469;28;20490;-76
2022/03/01 04:44:44;;;;;;;20.17;12.40;;;-2.40;99.90;;;;;;4989098;28;20513;-76
2022/03/01 04:47:14;;;;;;;17.17;13.17;;;-2.40;99.90;;;;;;5000911;28;20503;-76
2022/03/01 04:49:41;;;;;;;17.20;13.03;;;-2.50;99.90;;;;;;4986300;28;20448;-77
2022/03/01 04:52:08;;;;;;;20.13;13.50;;;-2.50;99.90;;;;;;5004371;28;20440;-76
2022/03/01 04:54:35;;;;;;;17.57;13.30;;;-2.50;99.90;;;;;;5003968;28;20806;-77
2022/03/01 04:57:03;;;;;;;16.63;12.77;;;-2.50;99.90;;;;;;5002706;28;20458;-78
2022/03/01 04:59:30;;;;;;;18.53;12.80;;;-2.60;99.90;;;;;;4982081;28;20476;-78
2022/03/01 05:01:57;;;;;;;20.60;13.77;;;-2.70;99.90;;;;;;4994296;28;20995;-76
2022/03/01 05:04:24;;;;;;;17.23;12.60;;;-2.80;99.90;;;;;;5003383;28;20435;-77
2022/03/01 05:06:51;;;;;;;21.63;14.10;;;-2.80;99.90;;;;;;4990290;28;20472;-76
2022/03/01 05:09:18;;;;;;;19.17;13.60;;;-2.80;99.90;;;;;;4998856;28;20483;-77
2022/03/01 05:11:45;;;;;;;18.90;14.03;;;-2.90;99.90;;;;;;5000110;28;20451;-77
2022/03/01 05:14:13;;;;;;;16.70;12.77;;;-2.90;99.90;;;;;;5005894;28;20437;-78
2022/03/01 05:16:40;;;;;;;15.83;13.20;;;-2.90;99.90;;;;;;4999162;28;20521;-77
2022/03/01 05:19:08;;;;;;;20.00;13.37;;;-2.90;99.90;;;;;;5002948;28;20861;-78
2022/03/01 05:21:35;;;;;;;17.67;13.60;;;-2.90;99.90;;;;;;4996450;28;20435;-77
2022/03/01 05:24:02;;;;;;;16.73;12.97;;;-2.90;99.90;;;;;;5012462;28;20449;-77
2022/03/01 05:26:29;;;;;;;17.87;14.33;;;-2.90;99.90;;;;;;4990344;28;21007;-77
2022/03/01 05:28:56;;;;;;;21.37;15.63;;;-2.90;99.90;;;;;;4994127;28;20522;-77
2022/03/01 05:31:25;;;;;;;17.47;14.77;;;-3.00;99.90;;;;;;5019932;28;20450;-76
2022/03/01 05:33:52;;;;;;;20.97;15.20;;;-2.90;99.90;;;;;;5003451;28;20494;-77
2022/03/01 05:36:20;;;;;;;18.67;14.40;;;-2.90;99.90;;;;;;4985450;28;20480;-74
2022/03/01 05:38:47;;;;;;;19.83;15.07;;;-3.00;99.90;;;;;;4985922;28;21077;-76
2022/03/01 05:41:14;;;;;;;20.87;14.90;;;-3.00;99.90;;;;;;5003250;28;20476;-76
2022/03/01 05:43:41;;;;;;;23.83;16.33;;;-3.10;99.90;;;;;;5006597;28;20819;-79
2022/03/01 05:46:08;;;;;;;21.57;15.60;;;-3.10;99.90;;;;;;5021082;28;20445;-77
2022/03/01 05:48:36;;;;;;;19.70;15.37;;;-3.10;99.90;;;;;;4994607;28;20480;-77
2022/03/01 05:51:04;;;;;;;20.83;14.13;;;-3.20;99.90;;;;;;5008180;28;20952;-77
2022/03/01 05:53:31;;;;;;;17.90;14.23;;;-3.20;99.90;;;;;;4986245;28;20965;-77
2022/03/01 05:55:58;;;;;;;19.00;13.77;;;-3.30;99.90;;;;;;4989482;28;20839;-76
2022/03/01 05:58:25;;;;;;;20.10;14.20;;;-3.20;99.90;;;;;;5019942;28;20887;-77
2022/03/01 06:00:51;;;;;;;19.13;14.23;;;-3.20;99.90;;;;;;4990674;28;20451;-75
2022/03/01 06:03:18;;;;;;;18.60;13.87;;;-3.20;99.90;;;;;;5008630;28;20450;-76
2022/03/01 06:05:46;;;;;;;19.33;14.63;;;-3.20;99.90;;;;;;5001073;28;20963;-76
2022/03/01 06:08:13;;;;;;;22.03;16.13;;;-3.10;99.90;;;;;;5003194;28;20738;-77
2022/03/01 06:10:40;;;;;;;19.60;15.23;;;-3.20;99.90;;;;;;5008046;28;20501;-77
2022/03/01 06:13:07;;;;;;;27.17;16.00;;;-3.20;99.90;;;;;;5016271;28;20443;-76
2022/03/01 06:15:34;;;;;;;20.13;15.93;;;-3.10;99.90;;;;;;5027892;28;20445;-76
2022/03/01 06:18:01;;;;;;;22.97;15.23;;;-3.10;99.90;;;;;;4994105;28;20729;-77
2022/03/01 06:20:28;;;;;;;19.67;14.47;;;-3.10;99.90;;;;;;4989133;28;20868;-77
2022/03/01 06:22:56;;;;;;;23.40;15.90;;;-3.10;99.90;;;;;;5007732;28;20475;-77
2022/03/01 06:25:23;;;;;;;18.93;15.30;;;-3.00;99.90;;;;;;4986252;28;20977;-77
2022/03/01 06:27:52;;;;;;;21.97;15.17;;;-3.10;99.90;;;;;;5025488;28;20849;-78
2022/03/01 06:30:19;;;;;;;22.27;15.30;;;-3.10;99.90;;;;;;5002837;28;20456;-77
2022/03/01 06:32:45;;;;;;;20.17;15.47;;;-3.10;99.90;;;;;;4985135;28;20967;-77
2022/03/01 06:35:12;;;;;;;22.83;15.97;;;-3.10;99.90;;;;;;5025490;28;20504;-77
2022/03/01 06:37:40;;;;;;;19.20;15.60;;;-3.10;99.90;;;;;;4998389;28;20467;-77
2022/03/01 06:40:12;;;;;;;18.63;14.37;;;-3.00;99.90;;;;;;4985740;28;20988;-77
2022/03/01 06:42:39;;;;;;;18.83;13.97;;;-2.90;99.90;;;;;;5006396;28;20439;-77
2022/03/01 06:45:07;;;;;;;24.87;15.77;;;-2.90;99.90;;;;;;5010786;28;20443;-77
2022/03/01 06:47:34;;;;;;;22.80;16.60;;;-2.80;99.90;;;;;;5020271;28;20485;-77
2022/03/01 06:50:01;;;;;;;21.57;16.40;;;-2.50;99.90;;;;;;5028238;28;20939;-77
2022/03/01 06:52:28;;;;;;;22.73;15.43;;;-2.00;99.90;;;;;;4992083;28;20988;-77
2022/03/01 06:54:55;;;;;;;22.00;16.53;;;-1.50;99.90;;;;;;5006839;28;20451;-77
2022/03/01 06:57:23;;;;;;;20.27;14.50;;;-1.20;99.90;;;;;;5005145;28;20437;-77
2022/03/01 06:59:53;;;;;;;20.93;17.13;;;-0.60;99.90;;;;;;4999177;28;20441;-77
2022/03/01 07:02:20;;;;;;;22.57;16.77;;;-0.30;99.90;;;;;;4986719;28;20452;-77
2022/03/01 07:04:47;;;;;;;23.93;16.80;;;0.20;99.90;;;;;;4988305;28;20491;-77
2022/03/01 07:07:14;;;;;;;21.90;16.00;;;0.50;99.90;;;;;;4998619;28;20436;-77
2022/03/01 07:09:40;;;;;;;19.63;16.67;;;0.90;99.90;;;;;;4987482;28;20460;-77
2022/03/01 07:12:08;;;;;;;17.33;15.53;;;1.10;99.90;;;;;;4998410;28;20453;-77
2022/03/01 07:14:36;;;;;;;20.33;16.33;;;1.20;99.90;;;;;;4988398;28;20460;-78
2022/03/01 07:17:04;;;;;;;18.57;16.13;;;1.40;99.90;;;;;;5008143;28;20440;-78
2022/03/01 07:19:31;;;;;;;21.30;16.83;;;1.50;99.90;;;;;;4988289;28;20484;-77
2022/03/01 07:21:57;;;;;;;18.13;16.23;;;1.70;99.90;;;;;;4988667;28;20450;-78
2022/03/01 07:24:24;;;;;;;23.50;16.30;;;1.80;99.90;;;;;;4999862;28;20439;-78
2022/03/01 07:26:51;;;;;;;22.00;16.33;;;1.80;99.90;;;;;;4987622;28;20486;-78
2022/03/01 07:29:18;;;;;;;17.20;14.77;;;1.60;99.90;;;;;;4998245;28;20493;-79
2022/03/01 07:31:46;;;;;;;21.30;16.10;;;1.60;99.90;;;;;;5007468;28;20434;-78
2022/03/01 07:34:13;;;;;;;19.83;15.97;;;1.50;99.90;;;;;;4997843;28;20456;-78
2022/03/01 07:36:40;;;;;;;19.50;15.90;;;1.40;99.90;;;;;;4990382;28;20500;-77
2022/03/01 07:39:06;;;;;;;18.43;15.47;;;1.30;99.90;;;;;;4985427;28;20494;-78
2022/03/01 07:41:33;;;;;;;18.00;15.80;;;1.20;99.90;;;;;;4985158;28;20451;-78
2022/03/01 07:44:00;;;;;;;20.50;16.67;;;1.30;99.90;;;;;;4984462;28;20984;-78
2022/03/01 07:46:27;;;;;;;18.10;15.30;;;1.50;99.90;;;;;;5013347;28;20443;-78
2022/03/01 07:48:55;;;;;;;21.57;15.93;;;1.70;99.90;;;;;;4996465;28;20472;-77
2022/03/01 07:51:22;;;;;;;17.27;15.20;;;2.00;99.90;;;;;;5011922;28;20825;-79
2022/03/01 07:53:49;;;;;;;20.13;16.57;;;2.50;99.90;;;;;;5000827;28;20454;-77
2022/03/01 07:56:16;;;;;;;19.23;16.17;;;2.70;99.90;;;;;;4987607;28;20455;-77
2022/03/01 07:58:43;;;;;;;17.77;15.37;;;3.00;99.90;;;;;;5003958;28;20487;-76
2022/03/01 08:01:09;;;;;;;19.13;15.63;;;3.20;99.90;;;;;;4987077;28;20452;-78
2022/03/01 08:03:36;;;;;;;17.93;15.87;;;3.50;99.90;;;;;;4984865;28;20252;-77
2022/03/01 08:06:05;;;;;;;17.53;15.67;;;3.80;99.90;;;;;;5002615;28;20201;-76
2022/03/01 08:08:33;;;;;;;18.03;16.13;;;4.10;99.90;;;;;;4998643;28;20217;-77
2022/03/01 08:10:59;;;;;;;18.87;16.70;;;4.30;99.90;;;;;;4992162;28;20231;-77
2022/03/01 08:13:26;;;;;;;17.43;15.60;;;4.50;99.90;;;;;;5010367;28;20201;-77
2022/03/01 08:15:53;;;;;;;18.57;15.33;;;4.80;99.90;;;;;;4984574;28;20581;-77
2022/03/01 08:18:20;;;;;;;18.60;16.17;;;5.20;99.90;;;;;;4984698;28;20223;-77
2022/03/01 08:20:47;;;;;;;19.07;14.70;;;5.60;99.90;;;;;;4984664;28;20206;-77
2022/03/01 08:23:15;;;;;;;18.50;10.87;;;5.80;99.90;;;;;;4984466;28;20198;-76
2022/03/01 08:25:42;;;;;;;18.73;11.07;;;5.40;99.90;;;;;;4984244;28;20210;-77
2022/03/01 08:28:09;;;;;;;19.17;11.87;;;5.50;99.90;;;;;;4990614;28;20282;-77
2022/03/01 08:30:36;;;;;;;17.63;14.47;;;5.60;99.90;;;;;;4978268;28;20733;-79
2022/03/01 08:33:04;;;;;;;17.17;13.53;;;6.00;99.90;;;;;;4994476;28;20257;-79
2022/03/01 08:35:32;;;;;;;16.60;14.70;;;6.50;99.90;;;;;;5007811;28;20201;-79
2022/03/01 08:38:02;;;;;;;17.10;13.53;;;6.60;99.90;;;;;;4993893;28;20272;-77
2022/03/01 08:40:32;;;;;;;20.40;14.77;;;6.70;99.90;;;;;;4986148;28;20198;-79
2022/03/01 08:42:59;;;;;;;15.53;11.13;;;6.60;99.90;;;;;;4986103;28;20682;-79
2022/03/01 08:45:26;;;;;;;15.00;10.27;;;7.00;99.90;;;;;;5002407;28;20215;-78
2022/03/01 08:47:53;;;;;;;21.23;12.27;;;6.80;99.90;;;;;;4992683;28;20231;-75
2022/03/01 08:50:20;;;;;;;17.70;13.37;;;6.70;99.90;;;;;;5008481;28;20202;-76
2022/03/01 08:52:48;;;;;;;16.83;15.10;;;6.40;99.90;;;;;;5007140;28;20207;-76
2022/03/01 08:55:15;;;;;;;16.60;14.87;;;6.40;99.90;;;;;;4992899;28;20222;-77
2022/03/01 08:57:43;;;;;;;18.13;15.07;;;6.60;99.90;;;;;;5000300;28;20245;-77
2022/03/01 09:00:13;;;;;;;18.17;15.73;;;6.90;99.90;;;;;;4993554;28;20206;-81
2022/03/01 09:02:40;;;;;;;18.53;14.80;;;7.20;99.90;;;;;;5003127;28;20195;-82
2022/03/01 09:05:07;;;;;;;18.90;14.47;;;7.40;99.90;;;;;;5014230;28;20203;-76
2022/03/01 09:07:34;;;;;;;16.17;14.43;;;7.40;99.90;;;;;;5011004;28;20195;-76
2022/03/01 09:10:01;;;;;;;20.00;15.23;;;7.50;99.90;;;;;;5000828;28;20224;-77
2022/03/01 09:12:28;;;;;;;17.10;12.43;;;7.40;99.90;;;;;;5001008;28;20255;-76
2022/03/01 09:14:56;;;;;;;19.53;13.63;;;7.50;99.90;;;;;;4990979;28;20666;-76
2022/03/01 09:17:23;;;;;;;17.10;14.60;;;7.30;99.90;;;;;;5000841;28;20209;-77
2022/03/01 09:19:50;;;;;;;18.10;15.10;;;7.10;99.90;;;;;;4999686;28;20208;-76
2022/03/01 09:22:17;;;;;;;17.13;13.83;;;7.40;99.90;;;;;;4984706;28;20700;-77
2022/03/01 09:24:44;;;;;;;17.83;14.87;;;7.40;99.90;;;;;;5000813;28;20193;-77
2022/03/01 09:27:11;;;;;;;15.70;13.93;;;7.30;99.90;;;;;;4991917;28;20262;-76
2022/03/01 09:29:38;;;;;;;18.07;15.37;;;7.60;99.90;;;;;;4999864;28;20236;-76
2022/03/01 09:32:07;;;;;;;19.37;14.80;;;7.70;99.90;;;;;;5003141;28;20666;-76
2022/03/01 09:34:34;;;;;;;15.27;13.83;;;7.70;99.90;;;;;;5004188;28;20204;-76
2022/03/01 09:37:01;;;;;;;16.47;14.57;;;7.90;99.90;;;;;;5007938;28;20215;-76
2022/03/01 09:39:27;;;;;;;15.43;13.80;;;7.60;99.90;;;;;;5001579;28;20212;-76
2022/03/01 09:41:55;;;;;;;15.73;14.13;;;7.70;99.90;;;;;;5000691;28;20197;-77
2022/03/01 09:44:23;;;;;;;15.60;13.97;;;7.90;99.90;;;;;;4985625;28;20696;-77
2022/03/01 09:46:50;;;;;;;14.37;12.87;;;7.60;99.90;;;;;;5006982;28;20204;-76
2022/03/01 09:49:18;;;;;;;15.77;14.00;;;8.00;99.90;;;;;;4986243;28;20575;-77
2022/03/01 09:51:46;;;;;;;15.90;13.73;;;7.90;99.90;;;;;;5003371;28;20204;-78
2022/03/01 09:54:13;;;;;;;14.53;11.43;;;8.10;99.90;;;;;;4994839;28;20208;-79
2022/03/01 09:56:39;;;;;;;13.87;8.90;;;8.10;99.90;;;;;;4995466;28;20440;-78
2022/03/01 09:59:06;;;;;;;13.90;9.20;;;8.30;99.90;;;;;;4993828;28;20242;-76
2022/03/01 10:01:33;;;;;;;13.30;11.10;;;8.20;99.60;;;;;;4995941;28;20209;-78
2022/03/01 10:04:20;;;;;;;13.17;10.40;;;8.10;99.90;;;;;;4999827;28;20212;-78
2022/03/01 10:06:49;;;;;;;15.30;13.03;;;8.20;99.30;;;;;;4990473;28;20220;-77
2022/03/01 10:09:18;;;;;;;13.17;9.13;;;7.90;99.50;;;;;;4981159;23;1059435;-77
2022/03/01 10:11:45;;;;;;;14.23;12.53;;;7.70;99.50;;;;;;5016447;28;20192;-77
2022/03/01 10:14:12;;;;;;;15.77;13.77;;;7.60;99.90;;;;;;5012613;28;20211;-77
2022/03/01 10:16:41;;;;;;;15.23;12.67;;;7.40;99.70;;;;;;5015815;28;20204;-77
2022/03/01 10:19:17;;;;;;;16.50;13.43;;;7.10;99.30;;;;;;5009916;28;20278;-77
2022/03/01 10:21:48;;;;;;;14.20;12.13;;;7.10;99.70;;;;;;5012472;28;20539;-77
2022/03/01 10:24:15;;;;;;;15.57;13.47;;;7.10;99.90;;;;;;5016000;28;20624;-77
2022/03/01 10:26:44;;;;;;;14.40;12.90;;;6.80;99.70;;;;;;5010787;28;20196;-76
2022/03/01 10:29:11;;;;;;;15.17;13.10;;;6.70;99.90;;;;;;4996425;28;20237;-77
2022/03/01 10:31:38;;;;;;;14.83;12.93;;;6.60;99.90;;;;;;5013246;28;20206;-75
2022/03/01 10:34:07;;;;;;;15.03;12.40;;;6.80;99.90;;;;;;5014209;28;20227;-76
2022/03/01 10:36:37;;;;;;;14.13;12.63;;;6.60;99.50;;;;;;4993751;28;20222;-75
2022/03/01 10:39:08;;;;;;;17.57;13.20;;;6.40;99.80;;;;;;5013120;28;20730;-75
2022/03/01 10:41:37;;;;;;;13.67;12.17;;;6.40;99.90;;;;;;5002681;28;20432;-75
2022/03/01 10:44:06;;;;;;;14.77;12.73;;;6.30;99.90;;;;;;4994296;28;20209;-75
2022/03/01 10:46:39;;;;;;;15.40;11.87;;;6.40;99.90;;;;;;5009246;28;20575;-75
2022/03/01 10:49:09;;;;;;;13.93;12.03;;;6.50;99.80;;;;;;5002789;28;20237;-75
2022/03/01 10:51:47;;;;;;;13.73;11.57;;;6.60;99.40;;;;;;4996118;28;20198;-75
2022/03/01 10:54:24;;;;;;;14.33;12.10;;;6.50;98.90;;;;;;4991059;28;20206;-75
2022/03/01 10:56:53;;;;;;;13.17;11.77;;;6.40;99.10;;;;;;4995404;28;20197;-75
2022/03/01 10:59:22;;;;;;;12.57;11.27;;;6.30;99.00;;;;;;5010773;28;20272;-75
2022/03/01 11:01:49;;;;;;;13.07;11.47;;;6.30;98.90;;;;;;5010263;28;20606;-77
2022/03/01 11:04:16;;;;;;;14.00;12.10;;;6.30;98.60;;;;;;5013533;28;20206;-79
2022/03/01 11:06:44;;;;;;;12.13;10.80;;;6.20;98.80;;;;;;5006161;28;20214;-75
2022/03/01 11:09:13;;;;;;;12.77;10.53;;;6.30;98.90;;;;;;5014044;28;20305;-76
2022/03/01 11:11:42;;;;;;;13.00;11.23;;;6.30;99.10;;;;;;4992541;28;20205;-78
2022/03/01 11:14:10;;;;;;;12.03;10.80;;;6.30;98.10;;;;;;5000570;28;20193;-78
2022/03/01 11:16:49;;;;;;;12.57;11.20;;;6.20;97.80;;;;;;5013570;28;20187;-77
2022/03/01 11:19:53;;;;;;;12.43;11.07;;;6.30;97.90;;;;;;5005162;28;20224;-76
2022/03/01 11:22:25;;;;;;;12.50;11.17;;;6.40;98.10;;;;;;5012534;28;20205;-75
2022/03/01 11:24:52;;;;;;;14.17;10.90;;;6.50;98.30;;;;;;4995417;28;20556;-76
2022/03/01 11:27:22;;;;;;;11.97;10.77;;;6.50;98.30;;;;;;4986879;28;20221;-75
2022/03/01 11:29:50;;;;;;;12.47;11.17;;;6.70;98.50;;;;;;5012838;28;20308;-76
2022/03/01 11:32:18;;;;;;;12.40;11.10;;;6.70;97.70;;;;;;5013145;28;20206;-76
2022/03/01 11:34:45;;;;;;;11.77;10.53;;;6.70;97.70;;;;;;4994776;28;20205;-76
2022/03/01 11:37:15;;;;;;;12.77;11.10;;;6.80;97.70;;;;;;4990907;28;20203;-76
2022/03/01 11:39:43;;;;;;;13.03;11.70;;;6.80;97.50;;;;;;4989627;28;20761;-76
2022/03/01 11:42:14;;;;;;;11.70;10.43;;;6.80;96.70;;;;;;5003543;28;20207;-76
2022/03/01 11:44:48;;;;;;;11.90;10.70;;;6.80;96.70;;;;;;5006852;28;20254;-76
2022/03/01 11:47:26;;;;;;;12.17;10.87;;;6.80;96.80;;;;;;4986802;28;20208;-76
2022/03/01 11:49:53;;;;;;;12.17;10.87;;;6.70;96.40;;;;;;4987879;28;20233;-76
2022/03/01 11:52:21;;;;;;;11.70;10.50;;;6.70;96.70;;;;;;5011596;28;20218;-75
2022/03/01 11:54:50;;;;;;;13.33;10.00;;;6.70;96.30;;;;;;4988429;28;20218;-76
2022/03/01 11:57:18;;;;;;;11.37;10.13;;;6.80;96.40;;;;;;5010417;28;20204;-76
2022/03/01 11:59:47;;;;;;;11.83;10.23;;;6.80;95.70;;;;;;4991700;28;20226;-75
2022/03/01 12:02:15;;;;;;;11.80;10.60;;;6.90;96.40;;;;;;4994910;28;20210;-76
2022/03/01 12:04:47;;;;;;;11.07;9.87;;;6.90;96.00;;;;;;4987926;28;20230;-76
2022/03/01 12:07:19;;;;;;;12.43;10.20;;;6.90;95.50;;;;;;4988701;28;20206;-76
2022/03/01 12:09:55;;;;;;;11.63;10.30;;;6.80;95.70;;;;;;5012288;28;20724;-75
2022/03/01 12:12:33;;;;;;;11.93;10.83;;;7.00;96.00;;;;;;5024091;28;20288;-75
2022/03/01 12:15:02;;;;;;;11.13;10.03;;;7.10;96.00;;;;;;5016841;28;20228;-76
2022/03/01 12:17:39;;;;;;;10.90;9.67;;;7.10;95.00;;;;;;4987523;28;20203;-75
2022/03/01 12:20:10;;;;;;;11.13;9.67;;;7.10;94.70;;;;;;5013768;28;20191;-75
2022/03/01 12:22:37;;;;;;;11.27;10.17;;;7.10;94.80;;;;;;5001638;28;20202;-76
2022/03/01 12:25:05;;;;;;;11.30;10.20;;;7.20;94.90;;;;;;5011905;28;20671;-76
2022/03/01 12:27:32;;;;;;;11.50;9.43;;;7.30;94.80;;;;;;4989745;28;20759;-76
2022/03/01 12:30:04;;;;;;;11.93;10.40;;;7.40;94.70;;;;;;5011810;28;20221;-76
2022/03/01 12:32:34;;;;;;;10.50;9.50;;;7.30;94.70;;;;;;5011951;28;20732;-76
2022/03/01 12:35:02;;;;;;;12.57;10.40;;;7.30;94.20;;;;;;5022361;28;20270;-78
2022/03/01 12:37:29;;;;;;;11.83;10.63;;;7.30;93.50;;;;;;5003120;28;20652;-77